sensor_id;sensor_type;location;lat;lon;timestamp;P1;durP1;ratioP1;P2;durP2;ratioP2
34196;SDS011;36594;45.192;5.722;2022-12-18T00:01:53;2.70;;;2.40;;
34196;SDS011;36594;45.192;5.722;2022-12-18T00:04:43;3.65;;;2.22;;
34196;SDS011;36594;45.192;5.722;2022-12-18T00:07:31;2.87;;;2.37;;
34196;SDS011;36594;45.192;5.722;2022-12-18T00:10:19;4.53;;;2.37;;
34196;SDS011;36594;45.192;5.722;2022-12-18T00:13:07;2.45;;;2.22;;
34196;SDS011;36594;45.192;5.722;2022-12-18T00:16:00;2.50;;;2.20;;
34196;SDS011;36594;45.192;5.722;2022-12-18T00:18:51;4.22;;;2.20;;
34196;SDS011;36594;45.192;5.722;2022-12-18T00:21:42;2.47;;;2.17;;
34196;SDS011;36594;45.192;5.722;2022-12-18T00:24:33;2.62;;;2.40;;
34196;SDS011;36594;45.192;5.722;2022-12-18T00:27:21;2.87;;;2.47;;
34196;SDS011;36594;45.192;5.722;2022-12-18T00:30:10;2.72;;;2.08;;
34196;SDS011;36594;45.192;5.722;2022-12-18T00:32:59;2.60;;;2.40;;
34196;SDS011;36594;45.192;5.722;2022-12-18T00:35:47;2.80;;;2.30;;
34196;SDS011;36594;45.192;5.722;2022-12-18T00:38:36;2.27;;;2.17;;
34196;SDS011;36594;45.192;5.722;2022-12-18T00:41:25;2.80;;;2.30;;
34196;SDS011;36594;45.192;5.722;2022-12-18T00:44:31;3.12;;;2.17;;
34196;SDS011;36594;45.192;5.722;2022-12-18T00:47:20;3.70;;;2.20;;
34196;SDS011;36594;45.192;5.722;2022-12-18T00:50:09;2.50;;;2.30;;
34196;SDS011;36594;45.192;5.722;2022-12-18T00:52:57;3.60;;;2.02;;
34196;SDS011;36594;45.192;5.722;2022-12-18T00:55:46;2.23;;;2.10;;
34196;SDS011;36594;45.192;5.722;2022-12-18T00:58:34;3.00;;;2.10;;
34196;SDS011;36594;45.192;5.722;2022-12-18T01:01:24;2.65;;;2.17;;
34196;SDS011;36594;45.192;5.722;2022-12-18T01:04:12;4.22;;;2.05;;
34196;SDS011;36594;45.192;5.722;2022-12-18T01:07:02;2.45;;;2.00;;
34196;SDS011;36594;45.192;5.722;2022-12-18T01:09:51;3.05;;;2.25;;
34196;SDS011;36594;45.192;5.722;2022-12-18T01:12:39;3.15;;;2.10;;
34196;SDS011;36594;45.192;5.722;2022-12-18T01:15:30;2.47;;;2.10;;
34196;SDS011;36594;45.192;5.722;2022-12-18T01:18:18;3.80;;;2.20;;
34196;SDS011;36594;45.192;5.722;2022-12-18T01:21:07;2.98;;;2.20;;
34196;SDS011;36594;45.192;5.722;2022-12-18T01:23:58;4.70;;;2.10;;
34196;SDS011;36594;45.192;5.722;2022-12-18T01:26:47;2.27;;;2.12;;
34196;SDS011;36594;45.192;5.722;2022-12-18T01:29:35;2.85;;;2.00;;
34196;SDS011;36594;45.192;5.722;2022-12-18T01:32:24;2.00;;;1.80;;
34196;SDS011;36594;45.192;5.722;2022-12-18T01:35:12;2.30;;;2.10;;
34196;SDS011;36594;45.192;5.722;2022-12-18T01:38:00;2.05;;;1.95;;
34196;SDS011;36594;45.192;5.722;2022-12-18T01:40:49;3.08;;;2.05;;
34196;SDS011;36594;45.192;5.722;2022-12-18T01:43:42;2.27;;;2.10;;
34196;SDS011;36594;45.192;5.722;2022-12-18T01:46:32;2.25;;;2.08;;
34196;SDS011;36594;45.192;5.722;2022-12-18T01:49:20;2.12;;;1.95;;
34196;SDS011;36594;45.192;5.722;2022-12-18T01:52:09;2.22;;;2.00;;
34196;SDS011;36594;45.192;5.722;2022-12-18T01:54:57;2.47;;;2.08;;
34196;SDS011;36594;45.192;5.722;2022-12-18T01:57:49;2.05;;;1.95;;
34196;SDS011;36594;45.192;5.722;2022-12-18T02:00:42;3.52;;;2.10;;
34196;SDS011;36594;45.192;5.722;2022-12-18T02:03:31;2.25;;;2.00;;
34196;SDS011;36594;45.192;5.722;2022-12-18T02:06:25;2.30;;;2.10;;
34196;SDS011;36594;45.192;5.722;2022-12-18T02:09:18;2.10;;;2.00;;
34196;SDS011;36594;45.192;5.722;2022-12-18T02:12:19;2.67;;;1.90;;
34196;SDS011;36594;45.192;5.722;2022-12-18T02:15:18;2.72;;;1.90;;
34196;SDS011;36594;45.192;5.722;2022-12-18T02:18:09;2.35;;;2.10;;
34196;SDS011;36594;45.192;5.722;2022-12-18T02:24:32;1.98;;;1.87;;
34196;SDS011;36594;45.192;5.722;2022-12-18T02:27:23;2.15;;;2.05;;
34196;SDS011;36594;45.192;5.722;2022-12-18T02:30:13;2.00;;;1.90;;
34196;SDS011;36594;45.192;5.722;2022-12-18T02:33:03;2.00;;;1.80;;
34196;SDS011;36594;45.192;5.722;2022-12-18T02:35:54;4.90;;;1.72;;
34196;SDS011;36594;45.192;5.722;2022-12-18T02:38:45;2.00;;;1.90;;
34196;SDS011;36594;45.192;5.722;2022-12-18T02:41:35;2.25;;;2.15;;
34196;SDS011;36594;45.192;5.722;2022-12-18T02:44:25;2.90;;;1.98;;
34196;SDS011;36594;45.192;5.722;2022-12-18T02:47:14;2.05;;;1.85;;
34196;SDS011;36594;45.192;5.722;2022-12-18T02:50:16;1.80;;;1.70;;
34196;SDS011;36594;45.192;5.722;2022-12-18T02:56:12;2.17;;;1.80;;
34196;SDS011;36594;45.192;5.722;2022-12-18T02:59:13;2.02;;;1.92;;
34196;SDS011;36594;45.192;5.722;2022-12-18T03:04:49;2.20;;;1.80;;
34196;SDS011;36594;45.192;5.722;2022-12-18T03:07:42;2.00;;;1.80;;
34196;SDS011;36594;45.192;5.722;2022-12-18T03:10:33;2.30;;;2.10;;
34196;SDS011;36594;45.192;5.722;2022-12-18T03:13:30;2.00;;;1.90;;
34196;SDS011;36594;45.192;5.722;2022-12-18T03:16:22;2.75;;;2.00;;
34196;SDS011;36594;45.192;5.722;2022-12-18T03:19:11;2.13;;;1.80;;
34196;SDS011;36594;45.192;5.722;2022-12-18T03:22:02;1.92;;;1.82;;
34196;SDS011;36594;45.192;5.722;2022-12-18T03:24:55;1.67;;;1.57;;
34196;SDS011;36594;45.192;5.722;2022-12-18T03:27:47;1.90;;;1.80;;
34196;SDS011;36594;45.192;5.722;2022-12-18T03:30:39;2.02;;;1.90;;
34196;SDS011;36594;45.192;5.722;2022-12-18T03:33:31;1.80;;;1.70;;
34196;SDS011;36594;45.192;5.722;2022-12-18T03:36:21;1.87;;;1.77;;
34196;SDS011;36594;45.192;5.722;2022-12-18T03:39:11;1.80;;;1.70;;
34196;SDS011;36594;45.192;5.722;2022-12-18T03:42:07;2.90;;;2.00;;
34196;SDS011;36594;45.192;5.722;2022-12-18T03:45:07;1.75;;;1.65;;
34196;SDS011;36594;45.192;5.722;2022-12-18T03:47:58;1.92;;;1.60;;
34196;SDS011;36594;45.192;5.722;2022-12-18T03:50:57;1.90;;;1.80;;
34196;SDS011;36594;45.192;5.722;2022-12-18T03:56:46;1.80;;;1.70;;
34196;SDS011;36594;45.192;5.722;2022-12-18T03:59:40;1.67;;;1.62;;
34196;SDS011;36594;45.192;5.722;2022-12-18T04:02:32;1.85;;;1.75;;
34196;SDS011;36594;45.192;5.722;2022-12-18T04:05:26;1.77;;;1.67;;
34196;SDS011;36594;45.192;5.722;2022-12-18T04:08:17;1.70;;;1.60;;
34196;SDS011;36594;45.192;5.722;2022-12-18T04:11:09;2.00;;;1.80;;
34196;SDS011;36594;45.192;5.722;2022-12-18T04:13:58;1.73;;;1.63;;
34196;SDS011;36594;45.192;5.722;2022-12-18T04:16:47;1.70;;;1.60;;
34196;SDS011;36594;45.192;5.722;2022-12-18T04:19:37;1.90;;;1.70;;
34196;SDS011;36594;45.192;5.722;2022-12-18T04:22:27;1.72;;;1.62;;
34196;SDS011;36594;45.192;5.722;2022-12-18T04:25:17;1.90;;;1.70;;
34196;SDS011;36594;45.192;5.722;2022-12-18T04:28:16;2.00;;;1.80;;
34196;SDS011;36594;45.192;5.722;2022-12-18T04:31:05;1.67;;;1.45;;
34196;SDS011;36594;45.192;5.722;2022-12-18T04:33:53;1.75;;;1.65;;
34196;SDS011;36594;45.192;5.722;2022-12-18T04:36:42;1.90;;;1.80;;
34196;SDS011;36594;45.192;5.722;2022-12-18T04:39:33;1.70;;;1.60;;
34196;SDS011;36594;45.192;5.722;2022-12-18T04:42:23;1.50;;;1.50;;
34196;SDS011;36594;45.192;5.722;2022-12-18T04:45:12;1.80;;;1.70;;
34196;SDS011;36594;45.192;5.722;2022-12-18T04:48:01;1.70;;;1.60;;
34196;SDS011;36594;45.192;5.722;2022-12-18T04:50:50;1.90;;;1.80;;
34196;SDS011;36594;45.192;5.722;2022-12-18T04:53:38;1.70;;;1.60;;
34196;SDS011;36594;45.192;5.722;2022-12-18T04:56:27;1.62;;;1.52;;
34196;SDS011;36594;45.192;5.722;2022-12-18T04:59:16;1.75;;;1.65;;
34196;SDS011;36594;45.192;5.722;2022-12-18T05:02:05;1.57;;;1.50;;
34196;SDS011;36594;45.192;5.722;2022-12-18T05:04:57;2.00;;;1.90;;
34196;SDS011;36594;45.192;5.722;2022-12-18T05:07:46;1.80;;;1.70;;
34196;SDS011;36594;45.192;5.722;2022-12-18T05:10:34;1.60;;;1.50;;
34196;SDS011;36594;45.192;5.722;2022-12-18T05:13:23;1.75;;;1.65;;
34196;SDS011;36594;45.192;5.722;2022-12-18T05:16:11;2.05;;;1.50;;
34196;SDS011;36594;45.192;5.722;2022-12-18T05:19:00;1.30;;;1.30;;
34196;SDS011;36594;45.192;5.722;2022-12-18T05:21:49;1.40;;;1.37;;
34196;SDS011;36594;45.192;5.722;2022-12-18T05:24:37;1.50;;;1.40;;
34196;SDS011;36594;45.192;5.722;2022-12-18T05:27:26;1.52;;;1.50;;
34196;SDS011;36594;45.192;5.722;2022-12-18T05:30:15;1.60;;;1.50;;
34196;SDS011;36594;45.192;5.722;2022-12-18T05:33:03;1.30;;;1.30;;
34196;SDS011;36594;45.192;5.722;2022-12-18T05:35:52;1.50;;;1.45;;
34196;SDS011;36594;45.192;5.722;2022-12-18T05:38:42;1.60;;;1.50;;
34196;SDS011;36594;45.192;5.722;2022-12-18T05:41:30;1.70;;;1.60;;
34196;SDS011;36594;45.192;5.722;2022-12-18T05:44:19;1.60;;;1.50;;
34196;SDS011;36594;45.192;5.722;2022-12-18T05:47:08;1.73;;;1.40;;
34196;SDS011;36594;45.192;5.722;2022-12-18T05:49:57;1.30;;;1.30;;
34196;SDS011;36594;45.192;5.722;2022-12-18T05:52:45;1.40;;;1.30;;
34196;SDS011;36594;45.192;5.722;2022-12-18T05:55:34;1.60;;;1.50;;
34196;SDS011;36594;45.192;5.722;2022-12-18T05:58:24;1.57;;;1.47;;
34196;SDS011;36594;45.192;5.722;2022-12-18T06:01:16;1.60;;;1.50;;
34196;SDS011;36594;45.192;5.722;2022-12-18T06:04:07;1.60;;;1.50;;
34196;SDS011;36594;45.192;5.722;2022-12-18T06:06:55;1.60;;;1.50;;
34196;SDS011;36594;45.192;5.722;2022-12-18T06:09:44;1.30;;;1.30;;
34196;SDS011;36594;45.192;5.722;2022-12-18T06:12:33;1.62;;;1.52;;
34196;SDS011;36594;45.192;5.722;2022-12-18T06:15:21;1.55;;;1.42;;
34196;SDS011;36594;45.192;5.722;2022-12-18T06:18:10;1.45;;;1.35;;
34196;SDS011;36594;45.192;5.722;2022-12-18T06:20:58;1.55;;;1.45;;
34196;SDS011;36594;45.192;5.722;2022-12-18T06:23:48;1.60;;;1.50;;
34196;SDS011;36594;45.192;5.722;2022-12-18T06:26:37;1.47;;;1.40;;
34196;SDS011;36594;45.192;5.722;2022-12-18T06:29:26;1.40;;;1.30;;
34196;SDS011;36594;45.192;5.722;2022-12-18T06:32:15;1.40;;;1.30;;
34196;SDS011;36594;45.192;5.722;2022-12-18T06:35:03;1.55;;;1.45;;
34196;SDS011;36594;45.192;5.722;2022-12-18T06:37:52;1.37;;;1.37;;
34196;SDS011;36594;45.192;5.722;2022-12-18T06:40:41;1.40;;;1.30;;
34196;SDS011;36594;45.192;5.722;2022-12-18T06:43:29;1.37;;;1.35;;
34196;SDS011;36594;45.192;5.722;2022-12-18T06:46:17;1.82;;;1.50;;
34196;SDS011;36594;45.192;5.722;2022-12-18T06:49:06;1.40;;;1.30;;
34196;SDS011;36594;45.192;5.722;2022-12-18T06:51:56;1.20;;;1.20;;
34196;SDS011;36594;45.192;5.722;2022-12-18T06:54:44;1.40;;;1.40;;
34196;SDS011;36594;45.192;5.722;2022-12-18T06:57:32;1.37;;;1.37;;
34196;SDS011;36594;45.192;5.722;2022-12-18T07:00:21;1.50;;;1.40;;
34196;SDS011;36594;45.192;5.722;2022-12-18T07:03:09;1.40;;;1.35;;
34196;SDS011;36594;45.192;5.722;2022-12-18T07:05:58;1.40;;;1.40;;
34196;SDS011;36594;45.192;5.722;2022-12-18T07:08:47;1.10;;;1.10;;
34196;SDS011;36594;45.192;5.722;2022-12-18T07:11:36;1.60;;;1.50;;
34196;SDS011;36594;45.192;5.722;2022-12-18T07:14:24;1.60;;;1.40;;
34196;SDS011;36594;45.192;5.722;2022-12-18T07:17:13;1.42;;;1.40;;
34196;SDS011;36594;45.192;5.722;2022-12-18T07:20:01;1.42;;;1.42;;
34196;SDS011;36594;45.192;5.722;2022-12-18T07:22:51;1.37;;;1.20;;
34196;SDS011;36594;45.192;5.722;2022-12-18T07:25:39;1.60;;;1.50;;
34196;SDS011;36594;45.192;5.722;2022-12-18T07:28:28;1.20;;;1.20;;
34196;SDS011;36594;45.192;5.722;2022-12-18T07:31:17;1.37;;;1.37;;
34196;SDS011;36594;45.192;5.722;2022-12-18T07:34:11;1.40;;;1.40;;
34196;SDS011;36594;45.192;5.722;2022-12-18T07:37:01;1.50;;;1.40;;
34196;SDS011;36594;45.192;5.722;2022-12-18T07:39:49;2.10;;;1.92;;
34196;SDS011;36594;45.192;5.722;2022-12-18T07:42:38;1.67;;;1.57;;
34196;SDS011;36594;45.192;5.722;2022-12-18T07:45:26;1.70;;;1.60;;
34196;SDS011;36594;45.192;5.722;2022-12-18T07:48:15;1.77;;;1.67;;
34196;SDS011;36594;45.192;5.722;2022-12-18T07:51:04;2.62;;;1.40;;
34196;SDS011;36594;45.192;5.722;2022-12-18T07:53:53;1.32;;;1.30;;
34196;SDS011;36594;45.192;5.722;2022-12-18T07:56:41;1.42;;;1.40;;
34196;SDS011;36594;45.192;5.722;2022-12-18T07:59:30;1.27;;;1.27;;
34196;SDS011;36594;45.192;5.722;2022-12-18T08:02:18;1.30;;;1.30;;
34196;SDS011;36594;45.192;5.722;2022-12-18T08:05:08;2.10;;;1.35;;
34196;SDS011;36594;45.192;5.722;2022-12-18T08:07:57;1.20;;;1.20;;
34196;SDS011;36594;45.192;5.722;2022-12-18T08:10:46;1.30;;;1.30;;
34196;SDS011;36594;45.192;5.722;2022-12-18T08:13:34;1.50;;;1.40;;
34196;SDS011;36594;45.192;5.722;2022-12-18T08:16:23;1.12;;;1.12;;
34196;SDS011;36594;45.192;5.722;2022-12-18T08:19:12;1.32;;;1.30;;
34196;SDS011;36594;45.192;5.722;2022-12-18T08:22:00;1.35;;;1.25;;
34196;SDS011;36594;45.192;5.722;2022-12-18T08:24:48;1.45;;;1.35;;
34196;SDS011;36594;45.192;5.722;2022-12-18T08:27:37;1.50;;;1.40;;
34196;SDS011;36594;45.192;5.722;2022-12-18T08:30:25;1.45;;;1.35;;
34196;SDS011;36594;45.192;5.722;2022-12-18T08:33:15;1.20;;;1.20;;
34196;SDS011;36594;45.192;5.722;2022-12-18T08:36:03;1.30;;;1.30;;
34196;SDS011;36594;45.192;5.722;2022-12-18T08:38:52;1.77;;;1.45;;
34196;SDS011;36594;45.192;5.722;2022-12-18T08:41:42;1.27;;;1.22;;
34196;SDS011;36594;45.192;5.722;2022-12-18T08:44:32;1.55;;;1.50;;
34196;SDS011;36594;45.192;5.722;2022-12-18T08:47:27;1.50;;;1.40;;
34196;SDS011;36594;45.192;5.722;2022-12-18T08:50:15;1.40;;;1.30;;
34196;SDS011;36594;45.192;5.722;2022-12-18T08:53:04;1.43;;;1.40;;
34196;SDS011;36594;45.192;5.722;2022-12-18T08:55:53;1.40;;;1.35;;
34196;SDS011;36594;45.192;5.722;2022-12-18T08:58:41;1.60;;;1.40;;
34196;SDS011;36594;45.192;5.722;2022-12-18T09:01:30;1.30;;;1.20;;
34196;SDS011;36594;45.192;5.722;2022-12-18T09:04:18;1.47;;;1.37;;
34196;SDS011;36594;45.192;5.722;2022-12-18T09:07:06;1.90;;;1.40;;
34196;SDS011;36594;45.192;5.722;2022-12-18T09:09:55;1.45;;;1.40;;
34196;SDS011;36594;45.192;5.722;2022-12-18T09:12:44;1.47;;;1.43;;
34196;SDS011;36594;45.192;5.722;2022-12-18T09:15:32;1.30;;;1.30;;
34196;SDS011;36594;45.192;5.722;2022-12-18T09:18:22;1.42;;;1.32;;
34196;SDS011;36594;45.192;5.722;2022-12-18T09:21:16;2.13;;;1.33;;
34196;SDS011;36594;45.192;5.722;2022-12-18T09:24:02;1.40;;;1.30;;
34196;SDS011;36594;45.192;5.722;2022-12-18T09:26:52;1.22;;;1.22;;
34196;SDS011;36594;45.192;5.722;2022-12-18T09:29:41;1.60;;;1.50;;
34196;SDS011;36594;45.192;5.722;2022-12-18T09:32:29;1.50;;;1.40;;
34196;SDS011;36594;45.192;5.722;2022-12-18T09:35:18;1.37;;;1.27;;
34196;SDS011;36594;45.192;5.722;2022-12-18T09:38:07;1.50;;;1.40;;
34196;SDS011;36594;45.192;5.722;2022-12-18T09:40:59;1.50;;;1.30;;
34196;SDS011;36594;45.192;5.722;2022-12-18T09:43:53;1.50;;;1.40;;
34196;SDS011;36594;45.192;5.722;2022-12-18T09:46:45;1.60;;;1.40;;
34196;SDS011;36594;45.192;5.722;2022-12-18T09:49:43;1.50;;;1.40;;
34196;SDS011;36594;45.192;5.722;2022-12-18T09:55:41;1.77;;;1.67;;
34196;SDS011;36594;45.192;5.722;2022-12-18T09:58:29;1.80;;;1.70;;
34196;SDS011;36594;45.192;5.722;2022-12-18T10:01:21;1.62;;;1.52;;
34196;SDS011;36594;45.192;5.722;2022-12-18T10:04:10;1.60;;;1.50;;
34196;SDS011;36594;45.192;5.722;2022-12-18T10:07:06;1.35;;;1.30;;
34196;SDS011;36594;45.192;5.722;2022-12-18T10:09:55;1.70;;;1.60;;
34196;SDS011;36594;45.192;5.722;2022-12-18T10:16:12;1.70;;;1.60;;
34196;SDS011;36594;45.192;5.722;2022-12-18T10:28:16;1.70;;;1.60;;
34196;SDS011;36594;45.192;5.722;2022-12-18T10:31:06;1.70;;;1.40;;
34196;SDS011;36594;45.192;5.722;2022-12-18T10:33:56;1.50;;;1.40;;
34196;SDS011;36594;45.192;5.722;2022-12-18T10:36:44;1.70;;;1.60;;
34196;SDS011;36594;45.192;5.722;2022-12-18T10:39:36;1.72;;;1.62;;
34196;SDS011;36594;45.192;5.722;2022-12-18T10:42:34;1.60;;;1.50;;
34196;SDS011;36594;45.192;5.722;2022-12-18T10:45:32;1.55;;;1.45;;
34196;SDS011;36594;45.192;5.722;2022-12-18T10:48:24;1.60;;;1.50;;
34196;SDS011;36594;45.192;5.722;2022-12-18T10:51:27;1.60;;;1.30;;
34196;SDS011;36594;45.192;5.722;2022-12-18T10:54:23;1.47;;;1.47;;
34196;SDS011;36594;45.192;5.722;2022-12-18T10:57:15;1.30;;;1.30;;
34196;SDS011;36594;45.192;5.722;2022-12-18T11:00:25;2.00;;;1.47;;
34196;SDS011;36594;45.192;5.722;2022-12-18T11:04:07;1.55;;;1.45;;
34196;SDS011;36594;45.192;5.722;2022-12-18T11:06:20;1.50;;;1.40;;
34196;SDS011;36594;45.192;5.722;2022-12-18T11:09:19;1.27;;;1.27;;
34196;SDS011;36594;45.192;5.722;2022-12-18T11:15:13;1.62;;;1.52;;
34196;SDS011;36594;45.192;5.722;2022-12-18T11:18:04;2.00;;;1.30;;
34196;SDS011;36594;45.192;5.722;2022-12-18T11:21:07;1.42;;;1.32;;
34196;SDS011;36594;45.192;5.722;2022-12-18T11:23:59;1.57;;;1.52;;
34196;SDS011;36594;45.192;5.722;2022-12-18T11:26:55;1.50;;;1.40;;
34196;SDS011;36594;45.192;5.722;2022-12-18T11:29:49;1.47;;;1.37;;
34196;SDS011;36594;45.192;5.722;2022-12-18T11:32:38;1.62;;;1.52;;
34196;SDS011;36594;45.192;5.722;2022-12-18T11:35:38;1.70;;;1.40;;
34196;SDS011;36594;45.192;5.722;2022-12-18T11:38:32;1.30;;;1.30;;
34196;SDS011;36594;45.192;5.722;2022-12-18T11:41:34;1.47;;;1.35;;
34196;SDS011;36594;45.192;5.722;2022-12-18T11:44:50;1.70;;;1.60;;
34196;SDS011;36594;45.192;5.722;2022-12-18T11:47:49;1.50;;;1.40;;
34196;SDS011;36594;45.192;5.722;2022-12-18T11:50:49;1.60;;;1.50;;
34196;SDS011;36594;45.192;5.722;2022-12-18T11:53:39;1.60;;;1.50;;
34196;SDS011;36594;45.192;5.722;2022-12-18T11:56:48;1.77;;;1.50;;
34196;SDS011;36594;45.192;5.722;2022-12-18T12:02:32;1.90;;;1.70;;
34196;SDS011;36594;45.192;5.722;2022-12-18T12:05:41;1.50;;;1.40;;
34196;SDS011;36594;45.192;5.722;2022-12-18T12:12:02;1.42;;;1.42;;
34196;SDS011;36594;45.192;5.722;2022-12-18T12:17:54;1.45;;;1.35;;
34196;SDS011;36594;45.192;5.722;2022-12-18T12:33:19;1.50;;;1.40;;
34196;SDS011;36594;45.192;5.722;2022-12-18T12:36:22;1.50;;;1.40;;
34196;SDS011;36594;45.192;5.722;2022-12-18T12:39:13;1.40;;;1.30;;
34196;SDS011;36594;45.192;5.722;2022-12-18T12:42:04;1.27;;;1.27;;
34196;SDS011;36594;45.192;5.722;2022-12-18T12:45:17;1.50;;;1.40;;
34196;SDS011;36594;45.192;5.722;2022-12-18T12:51:27;1.40;;;1.40;;
34196;SDS011;36594;45.192;5.722;2022-12-18T12:54:19;1.30;;;1.30;;
34196;SDS011;36594;45.192;5.722;2022-12-18T12:57:16;1.50;;;1.40;;
34196;SDS011;36594;45.192;5.722;2022-12-18T13:00:13;1.40;;;1.40;;
34196;SDS011;36594;45.192;5.722;2022-12-18T13:06:35;1.60;;;1.50;;
34196;SDS011;36594;45.192;5.722;2022-12-18T13:09:24;1.20;;;1.20;;
34196;SDS011;36594;45.192;5.722;2022-12-18T13:12:12;1.22;;;1.22;;
34196;SDS011;36594;45.192;5.722;2022-12-18T13:15:27;1.40;;;1.30;;
34196;SDS011;36594;45.192;5.722;2022-12-18T13:18:14;1.30;;;1.30;;
34196;SDS011;36594;45.192;5.722;2022-12-18T13:21:18;1.92;;;1.30;;
34196;SDS011;36594;45.192;5.722;2022-12-18T13:24:21;1.50;;;1.40;;
34196;SDS011;36594;45.192;5.722;2022-12-18T13:45:50;1.32;;;1.30;;
34196;SDS011;36594;45.192;5.722;2022-12-18T13:49:01;1.60;;;1.40;;
34196;SDS011;36594;45.192;5.722;2022-12-18T13:51:51;1.55;;;1.45;;
34196;SDS011;36594;45.192;5.722;2022-12-18T13:54:54;1.40;;;1.30;;
34196;SDS011;36594;45.192;5.722;2022-12-18T13:57:50;1.40;;;1.37;;
34196;SDS011;36594;45.192;5.722;2022-12-18T14:00:42;1.50;;;1.40;;
34196;SDS011;36594;45.192;5.722;2022-12-18T14:03:35;1.20;;;1.20;;
34196;SDS011;36594;45.192;5.722;2022-12-18T14:06:24;1.30;;;1.30;;
34196;SDS011;36594;45.192;5.722;2022-12-18T14:09:15;1.40;;;1.30;;
34196;SDS011;36594;45.192;5.722;2022-12-18T14:12:12;1.40;;;1.30;;
34196;SDS011;36594;45.192;5.722;2022-12-18T14:21:35;2.15;;;1.30;;
34196;SDS011;36594;45.192;5.722;2022-12-18T14:24:26;1.25;;;1.25;;
34196;SDS011;36594;45.192;5.722;2022-12-18T14:27:20;1.73;;;1.50;;
34196;SDS011;36594;45.192;5.722;2022-12-18T14:30:45;1.30;;;1.20;;
34196;SDS011;36594;45.192;5.722;2022-12-18T14:33:18;1.42;;;1.32;;
34196;SDS011;36594;45.192;5.722;2022-12-18T14:36:14;1.60;;;1.50;;
34196;SDS011;36594;45.192;5.722;2022-12-18T14:39:14;1.50;;;1.40;;
34196;SDS011;36594;45.192;5.722;2022-12-18T14:42:00;1.30;;;1.30;;
34196;SDS011;36594;45.192;5.722;2022-12-18T14:44:51;1.40;;;1.27;;
34196;SDS011;36594;45.192;5.722;2022-12-18T14:47:43;1.40;;;1.30;;
34196;SDS011;36594;45.192;5.722;2022-12-18T14:50:33;1.50;;;1.40;;
34196;SDS011;36594;45.192;5.722;2022-12-18T14:56:34;1.40;;;1.40;;
34196;SDS011;36594;45.192;5.722;2022-12-18T14:59:29;1.37;;;1.27;;
34196;SDS011;36594;45.192;5.722;2022-12-18T15:02:27;1.45;;;1.40;;
34196;SDS011;36594;45.192;5.722;2022-12-18T15:08:25;2.93;;;1.47;;
34196;SDS011;36594;45.192;5.722;2022-12-18T15:10:57;1.40;;;1.30;;
34196;SDS011;36594;45.192;5.722;2022-12-18T15:13:45;1.35;;;1.35;;
34196;SDS011;36594;45.192;5.722;2022-12-18T15:16:33;1.40;;;1.30;;
34196;SDS011;36594;45.192;5.722;2022-12-18T15:19:22;1.30;;;1.30;;
34196;SDS011;36594;45.192;5.722;2022-12-18T15:25:27;1.37;;;1.37;;
34196;SDS011;36594;45.192;5.722;2022-12-18T15:28:21;1.70;;;1.40;;
34196;SDS011;36594;45.192;5.722;2022-12-18T15:36:59;1.50;;;1.40;;
34196;SDS011;36594;45.192;5.722;2022-12-18T15:39:47;1.27;;;1.27;;
34196;SDS011;36594;45.192;5.722;2022-12-18T15:42:36;1.30;;;1.17;;
34196;SDS011;36594;45.192;5.722;2022-12-18T15:45:42;1.30;;;1.30;;
34196;SDS011;36594;45.192;5.722;2022-12-18T15:48:32;1.50;;;1.40;;
34196;SDS011;36594;45.192;5.722;2022-12-18T15:51:58;1.22;;;1.20;;
34196;SDS011;36594;45.192;5.722;2022-12-18T15:54:22;1.62;;;1.52;;
34196;SDS011;36594;45.192;5.722;2022-12-18T15:57:30;1.30;;;1.30;;
34196;SDS011;36594;45.192;5.722;2022-12-18T16:00:18;1.20;;;1.20;;
34196;SDS011;36594;45.192;5.722;2022-12-18T16:03:08;1.30;;;1.30;;
34196;SDS011;36594;45.192;5.722;2022-12-18T16:05:56;1.55;;;1.45;;
34196;SDS011;36594;45.192;5.722;2022-12-18T16:08:47;1.10;;;1.10;;
34196;SDS011;36594;45.192;5.722;2022-12-18T16:11:36;1.50;;;1.40;;
34196;SDS011;36594;45.192;5.722;2022-12-18T16:14:28;1.30;;;1.20;;
34196;SDS011;36594;45.192;5.722;2022-12-18T16:17:17;1.30;;;1.30;;
34196;SDS011;36594;45.192;5.722;2022-12-18T16:20:07;1.20;;;1.10;;
34196;SDS011;36594;45.192;5.722;2022-12-18T16:23:02;1.03;;;1.03;;
34196;SDS011;36594;45.192;5.722;2022-12-18T16:25:51;1.82;;;1.72;;
34196;SDS011;36594;45.192;5.722;2022-12-18T16:28:40;1.98;;;1.87;;
34196;SDS011;36594;45.192;5.722;2022-12-18T16:31:29;2.00;;;1.55;;
34196;SDS011;36594;45.192;5.722;2022-12-18T16:34:22;1.57;;;1.50;;
34196;SDS011;36594;45.192;5.722;2022-12-18T16:37:14;1.70;;;1.60;;
34196;SDS011;36594;45.192;5.722;2022-12-18T16:40:03;1.50;;;1.40;;
34196;SDS011;36594;45.192;5.722;2022-12-18T16:42:55;1.50;;;1.40;;
34196;SDS011;36594;45.192;5.722;2022-12-18T16:45:43;1.47;;;1.40;;
34196;SDS011;36594;45.192;5.722;2022-12-18T16:48:31;1.50;;;1.40;;
34196;SDS011;36594;45.192;5.722;2022-12-18T16:51:19;1.60;;;1.50;;
34196;SDS011;36594;45.192;5.722;2022-12-18T16:54:08;1.50;;;1.40;;
34196;SDS011;36594;45.192;5.722;2022-12-18T16:56:57;1.50;;;1.40;;
34196;SDS011;36594;45.192;5.722;2022-12-18T16:59:46;1.40;;;1.40;;
34196;SDS011;36594;45.192;5.722;2022-12-18T17:02:35;1.67;;;1.57;;
34196;SDS011;36594;45.192;5.722;2022-12-18T17:05:25;1.50;;;1.40;;
34196;SDS011;36594;45.192;5.722;2022-12-18T17:08:15;1.52;;;1.40;;
34196;SDS011;36594;45.192;5.722;2022-12-18T17:11:10;1.70;;;1.60;;
34196;SDS011;36594;45.192;5.722;2022-12-18T17:13:54;1.72;;;1.62;;
34196;SDS011;36594;45.192;5.722;2022-12-18T17:16:43;1.90;;;1.80;;
34196;SDS011;36594;45.192;5.722;2022-12-18T17:19:32;1.90;;;1.80;;
34196;SDS011;36594;45.192;5.722;2022-12-18T17:22:20;1.80;;;1.70;;
34196;SDS011;36594;45.192;5.722;2022-12-18T17:25:09;1.90;;;1.80;;
34196;SDS011;36594;45.192;5.722;2022-12-18T17:27:57;1.67;;;1.62;;
34196;SDS011;36594;45.192;5.722;2022-12-18T17:30:45;2.17;;;2.05;;
34196;SDS011;36594;45.192;5.722;2022-12-18T17:33:34;1.80;;;1.70;;
34196;SDS011;36594;45.192;5.722;2022-12-18T17:36:22;1.90;;;1.80;;
34196;SDS011;36594;45.192;5.722;2022-12-18T17:39:15;1.77;;;1.67;;
34196;SDS011;36594;45.192;5.722;2022-12-18T17:42:13;2.12;;;1.92;;
34196;SDS011;36594;45.192;5.722;2022-12-18T17:45:01;2.08;;;1.90;;
34196;SDS011;36594;45.192;5.722;2022-12-18T17:47:50;2.08;;;1.80;;
34196;SDS011;36594;45.192;5.722;2022-12-18T17:50:39;1.90;;;1.80;;
34196;SDS011;36594;45.192;5.722;2022-12-18T17:53:28;1.60;;;1.50;;
34196;SDS011;36594;45.192;5.722;2022-12-18T17:56:18;2.77;;;1.98;;
34196;SDS011;36594;45.192;5.722;2022-12-18T17:59:07;1.98;;;1.87;;
34196;SDS011;36594;45.192;5.722;2022-12-18T18:01:55;2.00;;;1.90;;
34196;SDS011;36594;45.192;5.722;2022-12-18T18:04:44;1.90;;;1.80;;
34196;SDS011;36594;45.192;5.722;2022-12-18T18:07:32;1.80;;;1.70;;
34196;SDS011;36594;45.192;5.722;2022-12-18T18:10:21;1.95;;;1.75;;
34196;SDS011;36594;45.192;5.722;2022-12-18T18:13:17;2.02;;;1.87;;
34196;SDS011;36594;45.192;5.722;2022-12-18T18:16:22;2.20;;;2.00;;
34196;SDS011;36594;45.192;5.722;2022-12-18T18:19:12;2.05;;;1.95;;
34196;SDS011;36594;45.192;5.722;2022-12-18T18:22:02;2.00;;;1.90;;
34196;SDS011;36594;45.192;5.722;2022-12-18T18:24:51;1.70;;;1.60;;
34196;SDS011;36594;45.192;5.722;2022-12-18T18:27:39;1.80;;;1.70;;
34196;SDS011;36594;45.192;5.722;2022-12-18T18:30:27;1.90;;;1.80;;
34196;SDS011;36594;45.192;5.722;2022-12-18T18:33:15;1.92;;;1.82;;
34196;SDS011;36594;45.192;5.722;2022-12-18T18:36:04;1.90;;;1.80;;
34196;SDS011;36594;45.192;5.722;2022-12-18T18:38:54;1.87;;;1.77;;
34196;SDS011;36594;45.192;5.722;2022-12-18T18:41:44;1.87;;;1.77;;
34196;SDS011;36594;45.192;5.722;2022-12-18T18:44:33;1.82;;;1.72;;
34196;SDS011;36594;45.192;5.722;2022-12-18T18:47:23;1.92;;;1.82;;
34196;SDS011;36594;45.192;5.722;2022-12-18T18:50:11;2.02;;;1.70;;
34196;SDS011;36594;45.192;5.722;2022-12-18T18:53:00;2.00;;;1.90;;